Time;durP1;ratioP1;P1;durP2;ratioP2;P2;SDS_P1;SDS_P2;PMS_P1;PMS_P2;Temp;Humidity;BMP_temperature;BMP_pressure;BME280_temperature;BME280_humidity;BME280_pressure;Samples;Min_cycle;Max_cycle;Signal;HPM_P1;HPM_P2
2022/11/09 00:01:01;;;;;;;2.47;1.00;;;;;;;14.57;44.75;100293.31;4916937;29;20076;-79
2022/11/09 00:03:29;;;;;;;2.08;1.10;;;;;;;14.57;44.81;100287.81;4915080;29;20052;-79
2022/11/09 00:05:59;;;;;;;2.40;1.27;;;;;;;14.57;44.69;100290.56;4915232;29;20056;-79
2022/11/09 00:08:28;;;;;;;1.85;1.05;;;;;;;14.57;44.50;100298.81;4929556;29;20043;-79
2022/11/09 00:11:02;;;;;;;1.98;1.15;;;;;;;14.58;44.80;100289.53;4912235;29;20080;-80
2022/11/09 00:13:30;;;;;;;3.72;1.30;;;;;;;14.56;44.88;100286.09;4925987;29;20048;-80
2022/11/09 00:16:01;;;;;;;1.83;1.23;;;;;;;14.58;44.40;100289.53;4952862;23;20048;-79
2022/11/09 00:18:29;;;;;;;2.53;1.17;;;;;;;14.55;44.34;100292.63;4936385;28;20103;-79
2022/11/09 00:21:05;;;;;;;2.67;1.17;;;;;;;14.57;45.12;100288.66;4934946;29;20047;-80
2022/11/09 00:23:33;;;;;;;1.65;1.00;;;;;;;14.54;44.56;100296.41;4951320;29;20498;-78
2022/11/09 00:26:01;;;;;;;1.48;1.00;;;;;;;14.54;44.57;100296.41;4932912;29;20498;-79
2022/11/09 00:28:29;;;;;;;2.58;1.20;;;;;;;14.53;44.70;100289.16;4929951;29;20054;-80
2022/11/09 00:31:01;;;;;;;2.20;1.20;;;;;;;14.55;44.95;100282.47;4949584;28;20047;-79
2022/11/09 00:33:29;;;;;;;1.75;1.00;;;;;;;14.50;44.82;100282.13;4945748;29;20060;-79
2022/11/09 00:35:59;;;;;;;2.03;1.02;;;;;;;14.54;44.93;100285.38;4935810;29;20173;-79
2022/11/09 00:38:26;;;;;;;1.92;1.10;;;;;;;14.53;44.55;100289.16;4941675;29;20050;-80
2022/11/09 00:40:54;;;;;;;2.60;1.38;;;;;;;14.51;44.71;100278.34;4933714;29;20051;-80
2022/11/09 00:43:22;;;;;;;1.95;1.00;;;;;;;14.50;44.49;100279.38;4933063;29;20098;-81
2022/11/09 00:45:50;;;;;;;1.95;1.13;;;;;;;14.51;44.91;100274.75;4933958;29;20114;-79
2022/11/09 00:48:20;;;;;;;2.20;1.20;;;;;;;14.51;44.92;100278.34;4945116;28;20068;-78
2022/11/09 00:50:49;;;;;;;1.63;1.17;;;;;;;14.51;44.77;100266.47;4938792;29;20440;-80
2022/11/09 00:53:20;;;;;;;2.00;1.10;;;;;;;14.52;44.40;100273.72;4931044;29;20103;-79
2022/11/09 00:55:56;;;;;;;2.10;1.20;;;;;;;14.53;44.41;100281.78;4933865;29;20084;-80
2022/11/09 00:58:24;;;;;;;2.80;1.13;;;;;;;14.49;44.73;100274.03;4929028;29;20115;-79
2022/11/09 01:00:53;;;;;;;2.45;1.17;;;;;;;14.49;44.53;100276.81;4933891;29;20050;-79
2022/11/09 01:03:21;;;;;;;2.08;1.10;;;;;;;14.48;44.89;100284.19;4924593;28;20040;-79
2022/11/09 01:05:52;;;;;;;2.53;1.20;;;;;;;14.48;44.92;100280.59;4932295;29;20039;-79
2022/11/09 01:08:21;;;;;;;2.33;1.02;;;;;;;14.49;44.25;100293.31;4931148;29;20130;-79
2022/11/09 01:10:49;;;;;;;1.60;1.00;;;;;;;14.45;44.63;100281.75;4932042;29;20059;-80
2022/11/09 01:13:18;;;;;;;2.08;1.20;;;;;;;14.46;44.82;100286.22;4922520;29;20407;-80
2022/11/09 01:15:49;;;;;;;1.55;1.02;;;;;;;14.47;44.93;100287.97;4936548;29;20446;-78
2022/11/09 01:18:18;;;;;;;1.60;1.20;;;;;;;14.46;44.45;100293.63;4931412;29;20059;-80
2022/11/09 01:20:48;;;;;;;1.73;0.90;;;;;;;14.45;44.55;100301.03;4945335;29;20054;-79
2022/11/09 01:23:18;;;;;;;1.60;0.90;;;;;;;14.45;44.36;100306.53;4932762;29;20040;-79
2022/11/09 01:25:48;;;;;;;2.17;1.08;;;;;;;14.45;44.75;100300.16;4934585;29;20052;-80
2022/11/09 01:28:16;;;;;;;2.67;1.20;;;;;;;14.43;44.36;100303.13;4926555;29;20048;-79
2022/11/09 01:30:44;;;;;;;1.85;0.90;;;;;;;14.41;44.89;100305.16;4946410;29;20098;-78
2022/11/09 01:33:12;;;;;;;3.47;1.00;;;;;;;14.42;44.57;100308.78;4932688;29;20044;-80
2022/11/09 01:35:40;;;;;;;2.33;1.27;;;;;;;14.42;44.38;100308.78;4932913;29;20044;-79
2022/11/09 01:38:09;;;;;;;2.63;1.30;;;;;;;14.41;44.59;100316.19;4939681;28;20044;-79
2022/11/09 01:40:39;;;;;;;2.25;1.20;;;;;;;14.42;44.22;100306.03;4930030;29;20060;-79
2022/11/09 01:43:15;;;;;;;1.98;1.10;;;;;;;14.42;44.13;100317.91;4945018;28;20048;-80
2022/11/09 01:45:47;;;;;;;1.25;0.82;;;;;;;14.41;44.83;100316.19;4936440;29;20071;-77
2022/11/09 01:48:19;;;;;;;1.95;0.98;;;;;;;14.40;44.60;100311.72;4931982;29;20062;-80
2022/11/09 01:50:53;;;;;;;1.92;0.82;;;;;;;14.40;44.26;100314.47;4928049;29;20112;-80
2022/11/09 01:53:26;;;;;;;3.13;1.35;;;;;;;14.37;44.57;100307.41;4930942;29;20044;-78
2022/11/09 01:55:58;;;;;;;1.98;1.00;;;;;;;14.38;44.32;100309.13;4939394;29;20044;-80
2022/11/09 01:58:36;;;;;;;3.50;1.23;;;;;;;14.36;44.51;100305.66;4937607;29;20108;-80
2022/11/09 02:01:09;;;;;;;1.90;1.00;;;;;;;14.36;44.19;100308.41;4940441;29;20047;-79
2022/11/09 02:03:44;;;;;;;1.30;0.75;;;;;;;14.38;43.94;100305.50;4939997;29;20047;-80
2022/11/09 02:06:16;;;;;;;1.45;0.75;;;;;;;14.36;44.25;100300.16;4936308;28;20047;-80
2022/11/09 02:08:45;;;;;;;2.40;1.00;;;;;;;14.36;44.17;100304.81;4935876;29;20075;-79
2022/11/09 02:11:17;;;;;;;3.03;0.90;;;;;;;14.36;43.91;100296.53;4954240;29;20075;-79
2022/11/09 02:13:51;;;;;;;1.63;0.90;;;;;;;14.36;44.17;100286.41;4953845;29;20139;-80
2022/11/09 02:16:20;;;;;;;2.35;0.80;;;;;;;14.34;44.22;100294.00;4953544;28;20039;-80
2022/11/09 02:18:53;;;;;;;3.67;1.10;;;;;;;14.35;44.34;100292.94;4938460;29;20095;-80
2022/11/09 02:21:27;;;;;;;2.35;1.25;;;;;;;14.34;43.77;100296.75;4932256;28;20039;-80
2022/11/09 02:23:55;;;;;;;2.85;0.95;;;;;;;14.33;43.70;100305.16;4938560;29;20071;-80
2022/11/09 02:26:29;;;;;;;2.17;1.00;;;;;;;14.35;44.22;100303.13;4938500;28;20130;-80
2022/11/09 02:29:01;;;;;;;1.83;0.88;;;;;;;14.34;44.02;100301.38;4942212;29;20102;-80
2022/11/09 02:31:34;;;;;;;2.25;0.80;;;;;;;14.33;43.81;100306.03;4935253;28;20051;-80
2022/11/09 02:34:06;;;;;;;1.30;0.88;;;;;;;14.33;44.27;100313.44;4938124;29;20490;-79
2022/11/09 02:36:36;;;;;;;1.42;0.88;;;;;;;14.33;44.21;100300.53;4933659;29;20035;-79
2022/11/09 02:39:06;;;;;;;3.28;1.13;;;;;;;14.30;44.45;100313.75;4931922;29;20044;-78
2022/11/09 02:41:42;;;;;;;2.15;1.05;;;;;;;14.33;43.70;100311.53;4933245;28;20064;-79
2022/11/09 02:44:13;;;;;;;1.38;0.90;;;;;;;14.32;44.32;100303.44;4935346;29;20134;-80
2022/11/09 02:46:42;;;;;;;2.55;0.90;;;;;;;14.31;44.11;100299.84;4934695;29;20044;-79
2022/11/09 02:49:10;;;;;;;3.40;1.05;;;;;;;14.31;43.92;100301.72;4933850;29;20055;-79
2022/11/09 02:51:39;;;;;;;2.70;0.88;;;;;;;14.33;43.75;100295.03;4934388;29;21071;-79
2022/11/09 02:54:07;;;;;;;2.83;0.95;;;;;;;14.31;43.66;100296.22;4928991;29;20055;-78
2022/11/09 02:56:36;;;;;;;1.15;0.70;;;;;;;14.32;43.83;100304.31;4925275;29;20139;-78
2022/11/09 02:59:04;;;;;;;2.60;1.10;;;;;;;14.31;43.79;100302.59;4940272;29;20046;-78
2022/11/09 03:01:36;;;;;;;3.15;1.05;;;;;;;14.29;43.69;100312.03;4938191;29;20036;-80
2022/11/09 03:04:05;;;;;;;2.15;1.00;;;;;;;14.31;44.06;100313.59;4936092;29;20077;-78
2022/11/09 03:06:36;;;;;;;1.55;0.70;;;;;;;14.30;43.98;100305.50;4928876;29;20063;-78
2022/11/09 03:09:12;;;;;;;2.63;1.08;;;;;;;14.32;44.08;100315.31;4930435;29;20051;-80
2022/11/09 03:11:41;;;;;;;1.50;1.02;;;;;;;14.30;44.20;100306.38;4933340;29;20078;-79
2022/11/09 03:14:11;;;;;;;2.45;0.90;;;;;;;14.30;44.04;100316.50;4933521;29;20063;-79
2022/11/09 03:16:46;;;;;;;2.78;1.00;;;;;;;14.28;43.75;100308.41;4956718;28;20079;-80
2022/11/09 03:19:18;;;;;;;2.78;1.17;;;;;;;14.27;44.07;100305.88;4954603;28;20525;-79
2022/11/09 03:21:48;;;;;;;2.70;0.90;;;;;;;14.29;43.84;100314.78;4925198;29;20050;-79
2022/11/09 03:24:22;;;;;;;1.52;0.75;;;;;;;14.28;44.29;100318.56;4922334;29;20078;-79
2022/11/09 03:26:53;;;;;;;1.92;0.80;;;;;;;14.27;43.61;100316.88;4932905;29;20055;-78
2022/11/09 03:29:21;;;;;;;2.63;0.98;;;;;;;14.28;44.19;100304.81;4934013;29;20741;-79
2022/11/09 03:31:49;;;;;;;1.80;0.88;;;;;;;14.28;44.14;100302.91;4939262;29;20091;-78
2022/11/09 03:34:17;;;;;;;2.63;1.00;;;;;;;14.28;44.26;100300.16;4941784;29;20561;-78
2022/11/09 03:36:45;;;;;;;1.60;0.73;;;;;;;14.29;43.72;100301.88;4935668;29;20051;-79
2022/11/09 03:39:13;;;;;;;2.53;1.13;;;;;;;14.28;43.96;100315.81;4927259;29;20048;-79
2022/11/09 03:41:42;;;;;;;3.15;1.13;;;;;;;14.30;44.10;100316.50;4950778;28;20434;-79
2022/11/09 03:44:10;;;;;;;1.70;1.10;;;;;;;14.28;44.01;100330.44;4931886;29;20126;-79
2022/11/09 03:46:38;;;;;;;1.38;0.80;;;;;;;14.28;43.62;100329.59;4936198;29;20576;-80
2022/11/09 03:49:06;;;;;;;2.08;1.10;;;;;;;14.27;43.92;100325.97;4934901;29;20052;-79
2022/11/09 03:51:34;;;;;;;2.72;1.10;;;;;;;14.28;44.23;100335.09;4936314;28;20503;-78
2022/11/09 03:54:02;;;;;;;2.80;0.88;;;;;;;14.29;44.31;100334.06;4939123;29;20086;-79
2022/11/09 03:56:29;;;;;;;1.80;1.00;;;;;;;14.27;44.37;100334.22;4934164;29;20044;-78
2022/11/09 03:58:59;;;;;;;1.50;0.70;;;;;;;14.31;43.77;100332.00;4946563;29;20139;-79
2022/11/09 04:01:26;;;;;;;3.38;1.15;;;;;;;14.28;44.00;100329.59;4934795;29;20106;-78
2022/11/09 04:03:54;;;;;;;3.30;1.10;;;;;;;14.28;44.02;100332.34;4941646;29;20557;-80
2022/11/09 04:06:22;;;;;;;1.95;1.00;;;;;;;14.27;44.00;100328.72;4938437;29;20534;-79
2022/11/09 04:08:51;;;;;;;3.53;0.80;;;;;;;14.28;44.25;100335.94;4945505;29;20058;-79
2022/11/09 04:11:19;;;;;;;2.88;0.90;;;;;;;14.28;43.82;100346.97;4927194;28;20071;-80
2022/11/09 04:13:47;;;;;;;2.40;0.85;;;;;;;14.28;43.88;100343.34;4933096;29;20058;-79
2022/11/09 04:16:16;;;;;;;4.25;1.50;;;;;;;14.30;44.10;100344.03;4933601;29;20043;-78
2022/11/09 04:18:44;;;;;;;2.10;1.00;;;;;;;14.28;43.84;100341.44;4939888;29;20047;-79
2022/11/09 04:21:12;;;;;;;2.90;0.90;;;;;;;14.29;43.90;100336.81;4926027;29;20147;-80
2022/11/09 04:23:40;;;;;;;2.97;1.08;;;;;;;14.29;44.06;100345.06;4917916;29;20448;-80
2022/11/09 04:26:07;;;;;;;2.67;0.70;;;;;;;14.29;43.90;100343.19;4949875;28;20043;-79
2022/11/09 04:28:35;;;;;;;2.45;0.98;;;;;;;14.29;44.04;100345.06;4934996;29;20053;-80
2022/11/09 04:31:03;;;;;;;1.85;0.80;;;;;;;14.30;44.13;100341.28;4936040;28;20032;-80
2022/11/09 04:33:32;;;;;;;2.17;0.98;;;;;;;14.31;43.73;100340.25;4937196;29;20044;-81
2022/11/09 04:36:04;;;;;;;2.80;1.10;;;;;;;14.31;44.10;100346.63;4935486;29;20502;-80
2022/11/09 04:38:32;;;;;;;1.63;0.75;;;;;;;14.29;44.39;100345.94;4943684;29;20040;-80
2022/11/09 04:41:01;;;;;;;2.28;0.90;;;;;;;14.30;44.18;100355.91;4943289;29;20058;-80
2022/11/09 04:43:29;;;;;;;2.05;0.90;;;;;;;14.28;44.17;100352.47;4936984;29;20067;-80
2022/11/09 04:45:59;;;;;;;2.65;1.00;;;;;;;14.30;44.00;100361.41;4935630;29;20063;-80
2022/11/09 04:48:27;;;;;;;1.80;0.93;;;;;;;14.30;44.03;100363.31;4932663;29;20052;-80
2022/11/09 04:51:01;;;;;;;2.47;0.82;;;;;;;14.32;44.16;100370.38;4933565;29;20047;-80
2022/11/09 04:53:29;;;;;;;2.40;1.02;;;;;;;14.30;44.35;100377.06;4946399;29;20039;-80
2022/11/09 04:55:57;;;;;;;2.33;0.90;;;;;;;14.29;43.96;100375.34;4931821;29;20664;-79
2022/11/09 04:58:26;;;;;;;1.80;0.90;;;;;;;14.29;44.12;100369.84;4934383;29;20491;-79
2022/11/09 05:00:54;;;;;;;2.60;1.02;;;;;;;14.29;44.38;100370.69;4947487;28;20043;-80
2022/11/09 05:03:22;;;;;;;2.15;0.90;;;;;;;14.27;44.24;100375.50;4938244;28;20106;-80
2022/11/09 05:05:51;;;;;;;3.33;1.20;;;;;;;14.30;44.32;100379.81;4933343;29;20086;-80
2022/11/09 05:08:20;;;;;;;2.10;1.00;;;;;;;14.30;44.65;100388.09;4924682;29;20051;-80
2022/11/09 05:10:48;;;;;;;2.42;0.90;;;;;;;14.27;44.78;100389.28;4935779;29;20044;-78
2022/11/09 05:13:15;;;;;;;1.92;1.00;;;;;;;14.27;44.85;100381.00;4935066;29;20040;-80
2022/11/09 05:15:44;;;;;;;2.05;1.00;;;;;;;14.27;44.44;100380.19;4947555;29;20118;-80
2022/11/09 05:18:12;;;;;;;2.05;1.08;;;;;;;14.27;44.76;100383.78;4936368;29;20044;-80
2022/11/09 05:20:40;;;;;;;2.83;0.90;;;;;;;14.26;44.85;100382.06;4959019;28;20392;-80
2022/11/09 05:25:54;;;;;;;2.53;1.10;;;;;;;14.25;44.87;100382.25;4937626;29;20048;-80
2022/11/09 05:28:22;;;;;;;2.08;0.93;;;;;;;14.24;45.10;100375.00;4936964;28;20039;-79
2022/11/09 05:30:50;;;;;;;2.53;0.90;;;;;;;14.23;45.17;100378.78;4935365;29;20134;-79
2022/11/09 05:33:18;;;;;;;2.90;1.00;;;;;;;14.23;44.91;100381.53;4936880;29;20044;-80
2022/11/09 05:35:46;;;;;;;1.95;1.00;;;;;;;14.23;44.67;100378.78;4934878;29;20047;-79
2022/11/09 05:38:14;;;;;;;3.58;1.00;;;;;;;14.23;44.62;100370.53;4935618;29;20077;-79
2022/11/09 05:40:42;;;;;;;1.98;0.90;;;;;;;14.21;44.60;100378.09;4943262;29;20048;-79
2022/11/09 05:43:11;;;;;;;3.38;1.20;;;;;;;14.23;45.13;100373.28;4938166;29;20043;-80
2022/11/09 05:45:39;;;;;;;3.05;1.20;;;;;;;14.21;45.09;100375.34;4939490;29;20069;-80
2022/11/09 05:48:11;;;;;;;3.05;1.10;;;;;;;14.21;44.76;100375.34;4937548;29;20040;-79
2022/11/09 05:50:40;;;;;;;4.78;1.50;;;;;;;14.21;44.63;100373.44;4942285;29;20032;-80
2022/11/09 05:53:19;;;;;;;3.33;1.20;;;;;;;14.19;45.14;100366.41;4928967;29;20062;-80
2022/11/09 05:55:48;;;;;;;2.55;1.30;;;;;;;14.19;44.56;100356.22;4950584;28;20134;-79
2022/11/09 05:58:17;;;;;;;3.60;1.00;;;;;;;14.20;45.05;100362.59;4936664;29;20462;-79
2022/11/09 06:00:45;;;;;;;3.45;1.20;;;;;;;14.17;44.53;100361.06;4953358;29;20058;-79
2022/11/09 06:03:13;;;;;;;2.33;1.00;;;;;;;14.17;44.61;100368.47;4938651;29;20651;-80
2022/11/09 06:05:41;;;;;;;2.03;0.90;;;;;;;14.18;44.74;100367.44;4949277;29;20071;-82
2022/11/09 06:08:11;;;;;;;2.58;0.95;;;;;;;14.18;44.75;100361.94;4949407;29;20055;-80
2022/11/09 06:10:39;;;;;;;1.63;0.68;;;;;;;14.15;44.65;100357.63;4946051;28;20054;-80
2022/11/09 06:13:08;;;;;;;1.88;0.82;;;;;;;14.16;44.56;100369.50;4933311;29;20508;-81
2022/11/09 06:15:37;;;;;;;3.10;1.20;;;;;;;14.17;44.27;100365.72;4975589;23;20159;-80
2022/11/09 06:18:05;;;;;;;3.78;1.42;;;;;;;14.13;44.67;100362.44;4911347;29;20036;-78
2022/11/09 06:20:33;;;;;;;4.35;1.00;;;;;;;14.12;44.65;100371.72;4918095;29;20562;-80
2022/11/09 06:23:01;;;;;;;2.65;0.82;;;;;;;14.12;44.40;100371.72;4919548;29;20044;-79
2022/11/09 06:25:32;;;;;;;2.35;1.10;;;;;;;14.11;44.26;100369.97;4922261;29;20036;-81
2022/11/09 06:28:00;;;;;;;2.28;0.82;;;;;;;14.10;44.43;100370.19;4934847;29;20048;-80
2022/11/09 06:30:28;;;;;;;2.58;1.00;;;;;;;14.09;44.29;100380.31;4936489;29;20769;-80
2022/11/09 06:33:01;;;;;;;2.33;1.10;;;;;;;14.11;43.94;100374.63;4935512;29;20525;-80
2022/11/09 06:35:30;;;;;;;1.85;0.90;;;;;;;14.09;44.30;100371.19;4927449;29;20615;-79
2022/11/09 06:37:58;;;;;;;2.53;1.00;;;;;;;14.08;44.63;100380.47;4933415;29;20790;-81
2022/11/09 06:40:27;;;;;;;1.98;0.95;;;;;;;14.08;44.45;100394.25;4937139;29;20039;-80
2022/11/09 06:42:58;;;;;;;2.50;1.00;;;;;;;14.07;44.74;100384.25;4920878;29;20462;-81
2022/11/09 06:45:28;;;;;;;1.95;0.70;;;;;;;14.06;44.57;100388.91;4937755;29;20040;-80
2022/11/09 06:47:56;;;;;;;2.25;0.80;;;;;;;14.05;44.81;100409.19;4925362;29;20044;-80
2022/11/09 06:50:26;;;;;;;3.22;0.90;;;;;;;14.06;44.65;100405.41;4935098;29;20086;-81
2022/11/09 06:52:57;;;;;;;1.52;0.60;;;;;;;14.04;44.53;100398.34;4946898;28;20056;-80
2022/11/09 06:55:25;;;;;;;2.72;0.88;;;;;;;14.01;44.64;100410.56;4917227;29;20523;-80
2022/11/09 06:57:53;;;;;;;2.72;0.98;;;;;;;14.02;44.79;100417.81;4920010;29;20048;-80
2022/11/09 07:00:21;;;;;;;2.17;1.02;;;;;;;14.02;45.05;100413.13;4940571;29;20071;-79
2022/11/09 07:02:49;;;;;;;1.88;0.82;;;;;;;14.01;45.17;100413.31;4934937;29;20132;-80
2022/11/09 07:05:18;;;;;;;2.47;0.90;;;;;;;14.02;45.15;100422.44;4934448;29;20048;-80
2022/11/09 07:07:47;;;;;;;2.13;1.08;;;;;;;14.02;45.13;100424.13;4920160;29;20044;-80
2022/11/09 07:10:16;;;;;;;1.80;0.65;;;;;;;14.02;45.13;100423.31;4934910;29;20079;-80
2022/11/09 07:12:44;;;;;;;2.70;0.90;;;;;;;14.00;44.98;100428.09;4934790;29;20044;-80
2022/11/09 07:15:12;;;;;;;3.60;0.90;;;;;;;13.98;45.11;100425.50;4929873;29;20063;-80
2022/11/09 07:17:41;;;;;;;3.00;1.05;;;;;;;14.00;44.80;100428.09;4925962;29;20044;-80
2022/11/09 07:20:10;;;;;;;1.95;0.80;;;;;;;14.01;45.12;100427.06;4925671;29;20069;-80
2022/11/09 07:22:38;;;;;;;1.75;0.90;;;;;;;13.98;44.83;100435.66;4940993;29;20456;-78
2022/11/09 07:25:10;;;;;;;3.10;1.10;;;;;;;14.00;45.13;100437.22;4929937;29;20047;-80
2022/11/09 07:27:38;;;;;;;3.05;1.27;;;;;;;13.97;44.72;100440.28;4930362;29;20052;-80
2022/11/09 07:30:09;;;;;;;2.33;0.82;;;;;;;13.98;44.87;100438.41;4942060;28;20766;-80
2022/11/09 07:32:38;;;;;;;2.00;0.90;;;;;;;13.98;45.12;100441.16;4932790;29;20059;-80
2022/11/09 07:35:26;;;;;;;6.68;1.10;;;;;;;13.95;45.08;100433.22;4945953;28;20040;-80
2022/11/09 07:37:54;;;;;;;3.42;0.98;;;;;;;13.95;45.07;100442.34;4920056;29;20095;-80
2022/11/09 07:40:24;;;;;;;1.88;0.90;;;;;;;13.97;44.88;100444.94;4923922;29;20062;-80
2022/11/09 07:42:52;;;;;;;2.33;0.88;;;;;;;13.94;45.14;100437.03;4929415;29;20062;-79
2022/11/09 07:45:20;;;;;;;2.35;1.20;;;;;;;13.94;45.01;100437.88;4930115;29;20047;-80
2022/11/09 07:47:48;;;;;;;1.55;0.93;;;;;;;13.93;45.11;100438.91;4920054;29;20083;-80
2022/11/09 07:50:16;;;;;;;3.30;1.17;;;;;;;13.94;44.98;100442.53;4934766;29;20499;-79
2022/11/09 07:52:43;;;;;;;3.25;1.10;;;;;;;13.93;44.91;100444.44;4933391;29;20047;-80
2022/11/09 07:55:11;;;;;;;2.38;1.00;;;;;;;13.92;45.34;100448.19;4931816;29;20503;-79
2022/11/09 07:57:43;;;;;;;2.90;1.20;;;;;;;13.93;45.30;100449.94;4947068;28;20081;-79
2022/11/09 08:00:11;;;;;;;3.17;0.95;;;;;;;13.92;45.47;100456.44;4935038;29;20113;-80
2022/11/09 08:02:39;;;;;;;3.65;1.08;;;;;;;13.92;45.29;100458.34;4934871;29;20051;-80
2022/11/09 08:05:07;;;;;;;2.22;0.90;;;;;;;13.92;45.05;100461.94;4934000;29;20047;-80
2022/11/09 08:07:36;;;;;;;1.92;1.10;;;;;;;13.92;45.25;100463.84;4929043;29;20051;-79
2022/11/09 08:10:04;;;;;;;2.67;1.00;;;;;;;13.94;45.63;100467.28;4920690;29;20051;-79
2022/11/09 08:12:32;;;;;;;2.90;1.05;;;;;;;13.94;45.44;100467.28;4937302;28;20067;-80
2022/11/09 08:15:06;;;;;;;3.42;1.15;;;;;;;13.95;45.66;100471.75;4934239;29;20043;-79
2022/11/09 08:17:34;;;;;;;1.92;0.80;;;;;;;13.94;45.53;100470.88;4946199;29;20040;-80
2022/11/09 08:20:02;;;;;;;2.05;0.80;;;;;;;13.94;45.61;100476.38;4922586;29;20051;-80
2022/11/09 08:22:30;;;;;;;2.13;0.75;;;;;;;13.94;45.74;100473.63;4927613;29;20099;-78
2022/11/09 08:24:58;;;;;;;2.80;1.10;;;;;;;13.97;45.53;100480.69;4921792;29;20067;-80
2022/11/09 08:27:26;;;;;;;1.70;0.73;;;;;;;13.98;46.02;100474.16;4934880;29;20044;-80
2022/11/09 08:29:53;;;;;;;2.40;0.85;;;;;;;13.99;45.77;100478.66;4916945;29;20044;-79
2022/11/09 08:32:25;;;;;;;1.23;0.80;;;;;;;14.03;46.20;100488.28;4948121;29;20098;-80
2022/11/09 08:34:53;;;;;;;1.52;0.82;;;;;;;14.03;45.80;100491.03;4938387;29;20429;-78
2022/11/09 08:37:21;;;;;;;2.88;1.00;;;;;;;14.09;46.09;100489.53;4938756;29;20043;-79
2022/11/09 08:39:49;;;;;;;2.08;0.80;;;;;;;14.13;46.35;100490.91;4921930;29;20103;-79
2022/11/09 08:42:17;;;;;;;2.72;0.93;;;;;;;14.17;46.19;100482.16;4922526;29;20051;-79
2022/11/09 08:44:45;;;;;;;1.90;0.95;;;;;;;14.24;46.43;100479.59;4939438;29;20090;-80
2022/11/09 08:47:12;;;;;;;2.67;0.95;;;;;;;14.29;46.26;100489.06;4931275;29;20048;-81
2022/11/09 08:49:42;;;;;;;3.40;1.30;;;;;;;14.37;46.06;100479.97;4934826;28;20075;-81
2022/11/09 08:52:10;;;;;;;2.63;1.00;;;;;;;14.44;46.21;100488.41;4930484;29;20703;-80
2022/11/09 08:54:38;;;;;;;2.88;1.10;;;;;;;14.50;45.87;100493.31;4931059;29;20051;-81
2022/11/09 08:57:06;;;;;;;1.92;0.90;;;;;;;14.56;45.85;100496.22;4931759;29;20107;-81
2022/11/09 08:59:34;;;;;;;3.00;1.08;;;;;;;14.64;45.88;100498.13;4924611;29;20128;-80
2022/11/09 09:02:02;;;;;;;2.53;0.82;;;;;;;14.71;45.38;100497.28;4926923;29;20047;-81
2022/11/09 09:04:30;;;;;;;3.17;1.05;;;;;;;14.80;45.26;100494.53;4931428;29;20677;-79
2022/11/09 09:07:00;;;;;;;2.55;0.93;;;;;;;14.88;45.08;100498.16;4924163;29;20091;-79
2022/11/09 09:09:30;;;;;;;1.45;0.82;;;;;;;14.92;45.13;100504.22;4922257;29;20578;-80
2022/11/09 09:11:58;;;;;;;2.10;0.98;;;;;;;15.01;44.56;100497.66;4931032;29;20120;-81
2022/11/09 09:14:26;;;;;;;2.08;0.93;;;;;;;15.07;44.77;100491.47;4917381;29;20040;-81
2022/11/09 09:16:54;;;;;;;2.55;0.85;;;;;;;15.15;44.47;100494.22;4927268;29;20047;-80
2022/11/09 09:19:23;;;;;;;3.05;0.75;;;;;;;15.19;44.22;100491.94;4923296;29;20143;-78
2022/11/09 09:21:51;;;;;;;3.70;0.88;;;;;;;15.25;43.73;100494.91;4920843;29;20103;-80
2022/11/09 09:24:20;;;;;;;2.55;1.02;;;;;;;15.32;43.67;100504.19;4939851;29;20131;-81
2022/11/09 09:26:48;;;;;;;1.92;0.77;;;;;;;15.34;43.64;100499.38;4924529;29;20136;-80
2022/11/09 09:29:16;;;;;;;2.10;1.02;;;;;;;15.42;43.39;100501.28;4927682;29;20044;-79
2022/11/09 09:31:44;;;;;;;2.63;0.90;;;;;;;15.49;43.73;100502.31;4930490;29;20040;-79
2022/11/09 09:34:12;;;;;;;2.40;0.95;;;;;;;15.54;43.33;100490.75;4929020;29;20135;-80
2022/11/09 09:36:40;;;;;;;1.98;0.80;;;;;;;15.62;43.37;100499.84;4924061;29;20095;-81
2022/11/09 09:39:14;;;;;;;1.15;0.80;;;;;;;15.68;43.46;100501.03;4921804;29;20060;-82
2022/11/09 09:41:50;;;;;;;3.00;1.00;;;;;;;15.78;42.68;100512.75;4943864;29;20507;-81
2022/11/09 09:44:25;;;;;;;2.92;1.05;;;;;;;15.84;42.28;100518.41;4926756;29;20044;-81
2022/11/09 09:47:04;;;;;;;2.35;1.15;;;;;;;15.92;42.51;100513.94;4942667;28;20048;-80
2022/11/09 09:49:36;;;;;;;4.50;1.10;;;;;;;15.96;42.58;100521.66;4922237;29;20047;-81
2022/11/09 09:52:12;;;;;;;2.93;1.20;;;;;;;15.98;42.14;100533.41;4951843;28;20051;-79
2022/11/09 09:54:43;;;;;;;2.55;1.00;;;;;;;16.04;42.06;100540.09;4938430;29;20040;-79
2022/11/09 09:57:18;;;;;;;1.95;1.08;;;;;;;16.07;41.53;100528.72;4923414;29;20043;-79
2022/11/09 09:59:49;;;;;;;2.17;1.02;;;;;;;16.09;41.39;100537.66;4924934;29;20070;-79
2022/11/09 10:02:23;;;;;;;2.85;1.10;;;;;;;16.11;41.52;100538.34;4934818;29;20537;-78
2022/11/09 10:04:51;;;;;;;3.53;1.02;;;;;;;16.09;41.77;100546.78;4947396;29;20044;-80
2022/11/09 10:07:27;;;;;;;1.88;0.90;;;;;;;16.13;41.40;100544.56;4932445;29;20066;-81
2022/11/09 10:10:22;;;;;;;2.75;1.02;;;;;;;16.10;41.17;100542.13;4928514;29;20048;-80
2022/11/09 10:13:17;;;;;;;4.13;0.88;;;;;;;16.14;41.00;100554.56;4945093;28;20056;-81
2022/11/09 10:15:52;;;;;;;2.85;1.10;;;;;;;16.15;40.00;100557.16;4945051;28;20134;-80
2022/11/09 10:18:34;;;;;;;3.35;0.90;;;;;;;16.15;39.61;100545.25;4929586;29;20055;-79
2022/11/09 10:21:14;;;;;;;2.92;0.88;;;;;;;16.12;39.39;100543.69;4932285;29;20054;-80
2022/11/09 10:23:57;;;;;;;2.92;0.98;;;;;;;16.09;38.85;100563.38;4933899;28;20135;-81
2022/11/09 10:26:33;;;;;;;2.22;0.60;;;;;;;16.04;39.17;100564.94;4932342;29;20044;-80
2022/11/09 10:29:18;;;;;;;3.03;0.90;;;;;;;16.02;38.61;100556.84;4928075;29;20047;-80
2022/11/09 10:31:48;;;;;;;2.40;0.98;;;;;;;15.96;39.72;100548.41;4936310;29;20055;-80
2022/11/09 10:34:19;;;;;;;2.13;1.00;;;;;;;15.92;39.49;100552.56;4950641;29;20052;-79
2022/11/09 10:36:53;;;;;;;4.72;1.10;;;;;;;15.88;38.82;100552.91;4926643;29;20051;-80
2022/11/09 10:39:24;;;;;;;2.50;0.75;;;;;;;15.83;39.59;100557.25;4933951;29;20138;-80
2022/11/09 10:42:11;;;;;;;2.05;0.70;;;;;;;15.78;39.74;100556.91;4936967;29;20050;-81
2022/11/09 10:45:11;;;;;;;2.30;0.88;;;;;;;15.74;39.13;100561.94;4931874;29;20067;-80
2022/11/09 10:47:59;;;;;;;2.70;0.98;;;;;;;15.67;39.51;100569.16;4934989;29;20066;-80
2022/11/09 10:50:48;;;;;;;2.08;0.82;;;;;;;15.67;39.62;100573.84;4930123;29;20123;-80
2022/11/09 10:53:35;;;;;;;2.88;0.90;;;;;;;15.62;39.79;100567.97;4938758;29;20413;-81
2022/11/09 10:56:21;;;;;;;3.28;0.90;;;;;;;15.59;39.37;100557.28;4937713;29;20554;-80
2022/11/09 10:59:36;;;;;;;3.15;0.90;;;;;;;15.57;39.22;100570.41;4928720;29;20130;-80
2022/11/09 11:02:44;;;;;;;2.47;0.80;;;;;;;15.53;39.10;100569.88;4941087;29;20082;-80
2022/11/09 11:05:32;;;;;;;5.22;1.00;;;;;;;15.53;39.64;100569.88;4941909;29;20058;-79
2022/11/09 11:08:31;;;;;;;2.08;0.95;;;;;;;15.56;38.69;100569.53;4951287;28;20050;-81
2022/11/09 11:11:23;;;;;;;2.28;0.80;;;;;;;15.58;39.26;100566.59;4947456;29;20064;-80
2022/11/09 11:14:28;;;;;;;2.50;0.77;;;;;;;15.60;39.32;100553.47;4947181;29;20051;-79
2022/11/09 11:17:23;;;;;;;2.53;0.90;;;;;;;15.64;39.35;100564.00;4940320;28;20054;-79
2022/11/09 11:20:30;;;;;;;2.55;0.82;;;;;;;15.64;39.18;100566.75;4942734;29;20065;-81
2022/11/09 11:23:19;;;;;;;2.00;0.77;;;;;;;15.69;39.88;100568.97;4927927;29;20055;-81
2022/11/09 11:26:27;;;;;;;4.65;1.00;;;;;;;15.75;38.72;100566.41;4935341;29;20057;-80
2022/11/09 11:29:41;;;;;;;1.75;0.75;;;;;;;15.77;38.96;100563.44;4938016;29;20047;-80
2022/11/09 11:32:27;;;;;;;3.40;1.05;;;;;;;15.79;39.45;100573.28;4943298;28;20094;-80
2022/11/09 11:35:16;;;;;;;2.40;0.85;;;;;;;15.89;39.54;100570.34;4928376;29;20054;-82
2022/11/09 11:38:22;;;;;;;2.67;0.80;;;;;;;15.94;38.41;100561.50;4929173;29;20067;-82
2022/11/09 11:41:31;;;;;;;2.45;0.70;;;;;;;15.98;38.52;100573.94;4932696;29;20058;-82
2022/11/09 11:44:34;;;;;;;1.33;0.70;;;;;;;16.01;38.61;100568.91;4955116;29;20058;-83
2022/11/09 11:47:25;;;;;;;1.85;0.88;;;;;;;16.03;38.49;100572.38;4953637;28;20053;-82
2022/11/09 11:50:37;;;;;;;2.20;0.70;;;;;;;16.03;38.16;100569.59;4937034;29;20059;-82